Attica, Indiana
Current Conditions -  °F | °C
As of 12:54 PM on Monday 24 Nov 2014 (Local Time) from KLAF Reporting Station
Overcast Overcast  
Wind Chill: -4°   Ceiling: 2100
Heat Index:   Visibility: 10mi
Dew Point: -1°   Wind: 23mph
Humidity: 82%   Direction: 240°WSW
Pressure: 29.5"   Gusts: 35mph
Location:  40.29°N, 87.25°W
Report Text: KLAF 241754Z 24020G30KT 10SM BKN021 OVC029 02/M01 A2950 RMK AO2 PK WND 23035/1720 UPB08E26SNB07E08 SLP992 P0000 60001 T00221006 10128 20017 53028
Loading
Personal Weather Stations






























Interactive Weather Map New forecast layout! Learn more

10-Day Weather Forecast

Advertisements
Track Severe Weather on mobile